This is the latest recevied weather packets stored in our database for station/object SP6PGH-13. If no packets are shown the sender has not sent any weather packets the latest 10 day(s).
| Time | Temp. | Humidity | Pressure | Rain* | Wind** | Luminosity | Snow |
|---|---|---|---|---|---|---|---|
| 1777693474 | 3.89° C | 90% | 1011 hPa | - | - | 10 W/m² | - |
| 1777692572 | 3.89° C | 90% | 1010.9 hPa | - | - | 4 W/m² | - |
| 1777691671 | 3.89° C | 90% | 1010.9 hPa | - | - | 1 W/m² | - |
| 1777690770 | 4.44° C | 86% | 1010.9 hPa | - | - | - | - |
| 1777689869 | 5.56° C | 84% | 1011 hPa | - | - | - | - |
| 1777688968 | 4.44° C | 87% | 1011 hPa | - | - | - | - |
| 1777688067 | 5.56° C | 83% | 1010.8 hPa | - | - | - | - |
| 1777687166 | 6.11° C | 84% | 1010.9 hPa | - | - | - | - |
| 1777686266 | 5.56° C | 87% | 1011 hPa | - | - | - | - |
| 1777685365 | 5° C | 88% | 1010.9 hPa | - | - | - | - |
| 1777684464 | 6.11° C | 86% | 1010.9 hPa | - | - | - | - |
| 1777683563 | 6.11° C | 87% | 1011 hPa | - | - | - | - |
| 1777682662 | 5.56° C | 88% | 1011.1 hPa | - | - | - | - |
| 1777681761 | 6.11° C | 85% | 1011.1 hPa | - | - | - | - |
| 1777680860 | 6.67° C | 83% | 1011.2 hPa | - | - | - | - |
| 1777679959 | 6.67° C | 85% | 1011.1 hPa | - | - | - | - |
| 1777679058 | 6.67° C | 85% | 1011.1 hPa | - | - | - | - |
| 1777678157 | 6.67° C | 85% | 1011.1 hPa | - | - | - | - |
| 1777677256 | 6.67° C | 83% | 1011.2 hPa | - | - | - | - |
| 1777676356 | 7.22° C | 82% | 1011.3 hPa | - | - | - | - |
| 1777675455 | 8.33° C | 79% | 1011.3 hPa | - | - | - | - |
| 1777674554 | 9.44° C | 74% | 1011.3 hPa | - | - | - | - |
| 1777673653 | 9.44° C | 74% | 1011.5 hPa | - | - | - | - |
| 1777672752 | 8.89° C | 75% | 1011.4 hPa | - | - | - | - |
| 1777670950 | 8.33° C | 77% | 1011.4 hPa | - | - | - | - |
* Rain since midnight (hover to see other rain measurements)
** Current wind speed in m/s (hover to see current wind gust speed)